KEKQ

Wayne County Airport

Monticello, Kentucky, USA
METAR KEKQ 160556Z AUTO 25013KT 10SM BKN022 OVC065 08/06 A2996 RMK AO2 SLP174 6//// T00780061 10083 20078 58007 PNO $
Observed Flight Rules
Dec-16 @ 05:56 UTC (13 minutes ago) Marginal Visual Flight Rules
Wind Visibility Clouds
250° at 13 knots 10 miles
  • Broken at 2,200' AGL
  • Overcast at 6,500' AGL
Temperatures Readings
Current 8°C / 46°F
Dewpoint 6°C / 43°F
Humidity 87%
Altimeter 29.96" Hg
Pressure 1017.4 hPa
Elevation 294
METAR KEKQ 160556Z AUTO 25013KT 10SM BKN022 OVC065 08/06 A2996 RMK AO2 SLP174 6//// T00780061 10083 20078 58007 PNO $
Observed Flight Rules
Dec-16 @ 05:56 UTC
(13 minutes ago)
MVFR
Wind Visibility
250° at 13 knots 10 miles
Clouds
  • Broken at 2,200' AGL
  • Overcast at 6,500' AGL
Temperature Dewpoint
8°C / 46°F 6°C / 43°F
Humidity Altimeter Pressure
87% 29.96" Hg 1017.4 hPa